Time;durP1;ratioP1;P1;durP2;ratioP2;P2;SDS_P1;SDS_P2;PMS_P1;PMS_P2;Temp;Humidity;BMP_temperature;BMP_pressure;BME280_temperature;BME280_humidity;BME280_pressure;Samples;Min_cycle;Max_cycle;Signal;HPM_P1;HPM_P2
2023/11/28 00:02:21;;;;;;;11.93;5.00;;;;;;;;;;4982318;28;59023;-76
2023/11/28 00:04:49;;;;;;;13.43;5.00;;;;;;;;;;4983208;28;58046;-77
2023/11/28 00:07:14;;;;;;;15.50;6.50;;;;;;;;;;4983166;28;57589;-75
2023/11/28 00:09:39;;;;;;;14.75;5.28;;;;;;;;;;4981525;28;59500;-76
2023/11/28 00:12:04;;;;;;;10.87;4.63;;;;;;;;;;4983152;28;57955;-76
2023/11/28 00:14:29;;;;;;;17.00;6.43;;;;;;;;;;4983826;28;58287;-75
2023/11/28 00:16:55;;;;;;;10.00;3.90;;;;;;;;;;4982106;28;58305;-76
2023/11/28 00:19:20;;;;;;;7.20;3.73;;;;;;;;;;4982017;28;57947;-76
2023/11/28 00:21:45;;;;;;;7.40;4.32;;;;;;;;;;4983802;28;58085;-75
2023/11/28 00:24:11;;;;;;;9.52;4.28;;;;;;;;;;4982401;28;58926;-74
2023/11/28 00:26:36;;;;;;;7.43;4.07;;;;;;;;;;4982182;28;58162;-75
2023/11/28 00:29:01;;;;;;;8.20;4.37;;;;;;;;;;4984163;28;58810;-76
2023/11/28 00:31:27;;;;;;;8.63;3.45;;;;;;;;;;4979571;28;59010;-76
2023/11/28 00:33:52;;;;;;;7.23;2.87;;;;;;;;;;4984494;28;58189;-77
2023/11/28 00:36:17;;;;;;;8.57;4.07;;;;;;;;;;4982912;28;57893;-77
2023/11/28 00:38:43;;;;;;;10.87;4.07;;;;;;;;;;4981584;28;58933;-79
2023/11/28 00:41:09;;;;;;;8.55;4.00;;;;;;;;;;4982550;28;57899;-72
2023/11/28 00:43:34;;;;;;;7.43;3.38;;;;;;;;;;4982115;28;60074;-72
2023/11/28 00:45:59;;;;;;;8.02;4.05;;;;;;;;;;4983656;28;57767;-72
2023/11/28 00:48:25;;;;;;;7.30;3.97;;;;;;;;;;4982329;28;57895;-73
2023/11/28 00:50:50;;;;;;;8.00;3.88;;;;;;;;;;4982086;28;60478;-73
2023/11/28 00:53:15;;;;;;;9.18;3.78;;;;;;;;;;4982751;28;57880;-73
2023/11/28 00:55:41;;;;;;;6.50;4.10;;;;;;;;;;4982097;28;58554;-74
2023/11/28 00:58:06;;;;;;;8.97;3.80;;;;;;;;;;4982005;28;60159;-72
2023/11/28 01:00:31;;;;;;;10.13;4.45;;;;;;;;;;4985382;28;57976;-72
2023/11/28 01:02:59;;;;;;;12.60;4.68;;;;;;;;;;4982865;28;59026;-75
2023/11/28 01:05:24;;;;;;;13.35;4.90;;;;;;;;;;4987412;28;57912;-75
2023/11/28 01:07:49;;;;;;;10.47;3.83;;;;;;;;;;4984361;28;59532;-76
2023/11/28 01:10:14;;;;;;;10.43;4.70;;;;;;;;;;4985475;28;57877;-76
2023/11/28 01:12:40;;;;;;;13.47;5.40;;;;;;;;;;4985891;28;57837;-76
2023/11/28 01:15:05;;;;;;;11.07;4.50;;;;;;;;;;4981796;28;58155;-75
2023/11/28 01:17:30;;;;;;;11.95;5.45;;;;;;;;;;4984891;28;59803;-76
2023/11/28 01:19:55;;;;;;;9.35;3.67;;;;;;;;;;4987409;28;57930;-76
2023/11/28 01:22:21;;;;;;;10.87;4.47;;;;;;;;;;4984750;28;58697;-78
2023/11/28 01:24:46;;;;;;;9.37;3.97;;;;;;;;;;4985079;28;58094;-79
2023/11/28 01:27:11;;;;;;;7.70;4.05;;;;;;;;;;4989133;28;59324;-78
2023/11/28 01:29:36;;;;;;;8.73;4.32;;;;;;;;;;4984208;28;58850;-78
2023/11/28 01:32:02;;;;;;;10.07;3.50;;;;;;;;;;4986257;28;57900;-78
2023/11/28 01:34:28;;;;;;;9.15;4.35;;;;;;;;;;4984554;28;59671;-78
2023/11/28 01:36:53;;;;;;;8.07;4.43;;;;;;;;;;4982556;28;59583;-78
2023/11/28 01:39:21;;;;;;;9.38;4.25;;;;;;;;;;4982398;28;58070;-78
2023/11/28 01:41:46;;;;;;;9.82;4.47;;;;;;;;;;4983987;28;58075;-79
2023/11/28 01:44:12;;;;;;;12.70;4.93;;;;;;;;;;4987778;28;57739;-78
2023/11/28 01:46:39;;;;;;;7.78;3.22;;;;;;;;;;4980009;28;61795;-78
2023/11/28 01:49:04;;;;;;;7.50;4.03;;;;;;;;;;4985419;28;59054;-76
2023/11/28 01:51:30;;;;;;;7.20;4.28;;;;;;;;;;4983874;28;57682;-78
2023/11/28 01:53:58;;;;;;;8.77;4.35;;;;;;;;;;4985797;28;59419;-78
2023/11/28 01:56:23;;;;;;;7.15;3.63;;;;;;;;;;4983446;28;58760;-78
2023/11/28 01:58:49;;;;;;;5.43;3.10;;;;;;;;;;4988599;28;58303;-78
2023/11/28 02:01:15;;;;;;;7.73;3.17;;;;;;;;;;4984316;28;57597;-78
2023/11/28 02:03:41;;;;;;;10.43;3.17;;;;;;;;;;4985774;28;58832;-78
2023/11/28 02:06:08;;;;;;;10.15;4.13;;;;;;;;;;4983444;28;58120;-78
2023/11/28 02:08:34;;;;;;;6.93;3.35;;;;;;;;;;4984532;28;58075;-78
2023/11/28 02:10:59;;;;;;;9.38;4.00;;;;;;;;;;4984996;28;58203;-79
2023/11/28 02:13:24;;;;;;;8.43;3.15;;;;;;;;;;4986982;28;57653;-79
2023/11/28 02:15:50;;;;;;;5.83;3.17;;;;;;;;;;4982839;28;58018;-78
2023/11/28 02:18:15;;;;;;;4.70;2.20;;;;;;;;;;4983896;28;58158;-78
2023/11/28 02:20:40;;;;;;;4.27;2.27;;;;;;;;;;4984162;28;57674;-78
2023/11/28 02:23:05;;;;;;;5.77;3.20;;;;;;;;;;4985619;28;58949;-75
2023/11/28 02:25:37;;;;;;;5.65;2.80;;;;;;;;;;4984684;28;57676;-75
2023/11/28 02:28:02;;;;;;;6.30;3.58;;;;;;;;;;4984728;28;57550;-76
2023/11/28 02:30:28;;;;;;;5.60;2.70;;;;;;;;;;4981462;28;57741;-76
2023/11/28 02:32:53;;;;;;;6.88;3.08;;;;;;;;;;4984489;28;58445;-75
2023/11/28 02:35:18;;;;;;;5.10;2.97;;;;;;;;;;4984135;28;57971;-75
2023/11/28 02:37:43;;;;;;;4.72;2.47;;;;;;;;;;4983579;28;58118;-75
2023/11/28 02:40:08;;;;;;;6.97;2.90;;;;;;;;;;4983751;28;58614;-75
2023/11/28 02:42:33;;;;;;;5.18;2.55;;;;;;;;;;4983697;28;57986;-75
2023/11/28 02:44:59;;;;;;;3.80;2.00;;;;;;;;;;4983599;28;57842;-75
2023/11/28 02:47:24;;;;;;;5.97;2.97;;;;;;;;;;4985368;28;57932;-74
2023/11/28 02:49:49;;;;;;;5.80;3.45;;;;;;;;;;4983657;28;57921;-75
2023/11/28 02:52:14;;;;;;;5.22;2.92;;;;;;;;;;4984201;28;58337;-76
2023/11/28 02:54:40;;;;;;;4.18;2.35;;;;;;;;;;4983462;28;58893;-75
2023/11/28 02:57:06;;;;;;;5.85;2.53;;;;;;;;;;4984148;28;57767;-72
2023/11/28 02:59:31;;;;;;;5.10;2.42;;;;;;;;;;4982406;28;58668;-75
2023/11/28 03:01:56;;;;;;;3.70;2.37;;;;;;;;;;4984579;28;59011;-75
2023/11/28 03:04:21;;;;;;;8.27;3.67;;;;;;;;;;4984072;28;57874;-72
2023/11/28 03:06:47;;;;;;;6.10;2.40;;;;;;;;;;4981995;28;58104;-73
2023/11/28 03:09:13;;;;;;;4.05;2.47;;;;;;;;;;4983753;28;59236;-73
2023/11/28 03:11:38;;;;;;;4.53;2.50;;;;;;;;;;4984719;28;58393;-74
2023/11/28 03:14:03;;;;;;;5.00;2.87;;;;;;;;;;4981640;28;57926;-76
2023/11/28 03:16:28;;;;;;;4.55;3.08;;;;;;;;;;4984965;28;57782;-76
2023/11/28 03:18:53;;;;;;;5.18;1.80;;;;;;;;;;4983546;28;58366;-74
2023/11/28 03:21:18;;;;;;;3.97;2.20;;;;;;;;;;4982543;28;58915;-74
2023/11/28 03:23:43;;;;;;;5.47;2.70;;;;;;;;;;4984386;28;57242;-73
2023/11/28 03:26:09;;;;;;;4.03;2.63;;;;;;;;;;4985111;28;57913;-74
2023/11/28 03:28:34;;;;;;;4.50;1.90;;;;;;;;;;4983820;28;57846;-74
2023/11/28 03:30:59;;;;;;;3.00;1.70;;;;;;;;;;4983848;28;57576;-74
2023/11/28 03:33:24;;;;;;;2.50;1.95;;;;;;;;;;4984384;28;59735;-77
2023/11/28 03:35:49;;;;;;;3.13;1.87;;;;;;;;;;4983344;28;57939;-76
2023/11/28 03:38:14;;;;;;;3.30;2.20;;;;;;;;;;4981995;28;58643;-75
2023/11/28 03:40:40;;;;;;;3.63;2.28;;;;;;;;;;4981952;28;58877;-76
2023/11/28 03:43:05;;;;;;;5.00;2.20;;;;;;;;;;4983652;28;58034;-73
2023/11/28 03:45:30;;;;;;;3.95;1.77;;;;;;;;;;4982003;28;59002;-73
2023/11/28 03:47:55;;;;;;;2.13;1.90;;;;;;;;;;4981520;28;58840;-73
2023/11/28 03:50:20;;;;;;;4.57;1.88;;;;;;;;;;4984188;28;57813;-73
2023/11/28 03:52:46;;;;;;;3.42;1.88;;;;;;;;;;4983150;28;58738;-73
2023/11/28 03:55:11;;;;;;;3.53;2.05;;;;;;;;;;4984741;28;57959;-73
2023/11/28 03:57:36;;;;;;;5.73;2.13;;;;;;;;;;4980111;28;58572;-72
2023/11/28 04:00:03;;;;;;;4.30;2.10;;;;;;;;;;4982150;28;58700;-73
2023/11/28 04:02:28;;;;;;;3.60;2.05;;;;;;;;;;4981709;28;58063;-74
2023/11/28 04:04:53;;;;;;;2.60;2.23;;;;;;;;;;4984517;28;57908;-74
2023/11/28 04:07:18;;;;;;;4.67;3.07;;;;;;;;;;4984036;28;57825;-72
2023/11/28 04:09:44;;;;;;;3.83;2.07;;;;;;;;;;4982531;28;57839;-73
2023/11/28 04:12:09;;;;;;;3.00;1.67;;;;;;;;;;4981944;28;58869;-74
2023/11/28 04:14:34;;;;;;;3.80;1.55;;;;;;;;;;4979973;28;58137;-73
2023/11/28 04:16:59;;;;;;;1.65;1.15;;;;;;;;;;4979163;28;57943;-74
2023/11/28 04:19:24;;;;;;;3.27;1.53;;;;;;;;;;4977903;28;57691;-73
2023/11/28 04:21:50;;;;;;;1.88;1.30;;;;;;;;;;4980376;28;58067;-73
2023/11/28 04:24:15;;;;;;;2.63;1.63;;;;;;;;;;4980261;28;58904;-73
2023/11/28 04:26:40;;;;;;;2.17;1.10;;;;;;;;;;4981528;28;59287;-73
2023/11/28 04:29:06;;;;;;;2.63;1.60;;;;;;;;;;4983746;28;57868;-73
2023/11/28 04:31:31;;;;;;;1.33;1.20;;;;;;;;;;4979975;28;59286;-73
2023/11/28 04:33:56;;;;;;;3.15;1.75;;;;;;;;;;4982911;28;58677;-73
2023/11/28 04:36:21;;;;;;;1.97;1.10;;;;;;;;;;4981278;28;58957;-73
2023/11/28 04:38:46;;;;;;;1.80;1.48;;;;;;;;;;4979504;28;58922;-73
2023/11/28 04:41:12;;;;;;;2.43;1.00;;;;;;;;;;4982025;28;57803;-73
2023/11/28 04:43:37;;;;;;;2.15;1.05;;;;;;;;;;4983137;28;62742;-73
2023/11/28 04:46:02;;;;;;;2.73;1.50;;;;;;;;;;4979862;28;59071;-74
2023/11/28 04:48:28;;;;;;;3.40;1.63;;;;;;;;;;4983894;28;57832;-72
2023/11/28 04:50:53;;;;;;;3.87;1.60;;;;;;;;;;4981211;28;57838;-73
2023/11/28 04:53:18;;;;;;;1.45;1.15;;;;;;;;;;4981592;28;59816;-72
2023/11/28 04:55:43;;;;;;;3.78;1.55;;;;;;;;;;4984334;28;58319;-72
2023/11/28 04:58:08;;;;;;;3.57;1.30;;;;;;;;;;4981122;28;58819;-73
2023/11/28 05:00:34;;;;;;;3.00;1.43;;;;;;;;;;4981954;28;58141;-73
2023/11/28 05:02:59;;;;;;;1.50;0.83;;;;;;;;;;4983520;28;58101;-73
2023/11/28 05:05:24;;;;;;;2.07;1.27;;;;;;;;;;4983407;28;58829;-72
2023/11/28 05:07:49;;;;;;;2.10;1.23;;;;;;;;;;4985023;28;58092;-73
2023/11/28 05:10:14;;;;;;;1.98;1.63;;;;;;;;;;4984924;28;59732;-73
2023/11/28 05:12:39;;;;;;;2.47;1.23;;;;;;;;;;4980503;28;59181;-73
2023/11/28 05:15:05;;;;;;;2.03;1.27;;;;;;;;;;4981204;28;58737;-74
2023/11/28 05:17:30;;;;;;;1.63;1.03;;;;;;;;;;4983384;28;58548;-73
2023/11/28 05:19:55;;;;;;;2.47;1.60;;;;;;;;;;4984352;28;57860;-73
2023/11/28 05:22:20;;;;;;;1.30;1.10;;;;;;;;;;4982316;28;58887;-73
2023/11/28 05:24:45;;;;;;;1.33;0.90;;;;;;;;;;4982140;28;59045;-73
2023/11/28 05:27:11;;;;;;;1.07;0.63;;;;;;;;;;4982135;28;58183;-73
2023/11/28 05:29:36;;;;;;;1.47;1.37;;;;;;;;;;4980965;28;58284;-73
2023/11/28 05:32:04;;;;;;;1.50;1.00;;;;;;;;;;4980703;28;58143;-74
2023/11/28 05:34:29;;;;;;;;;;;;;;;;;;4980982;28;57838;-73
2023/11/28 05:36:54;;;;;;;2.92;0.90;;;;;;;;;;4981666;28;59654;-73
2023/11/28 05:39:19;;;;;;;1.05;0.95;;;;;;;;;;4982332;28;57588;-73
2023/11/28 05:41:45;;;;;;;1.10;0.75;;;;;;;;;;4982448;28;58194;-74
2023/11/28 05:44:10;;;;;;;1.27;0.60;;;;;;;;;;4983841;28;59056;-70
2023/11/28 05:46:35;;;;;;;1.58;0.80;;;;;;;;;;4984901;28;58160;-69
2023/11/28 05:49:00;;;;;;;1.53;0.87;;;;;;;;;;4984795;28;58600;-70
2023/11/28 05:51:25;;;;;;;1.20;0.97;;;;;;;;;;4979999;28;59061;-68
2023/11/28 05:53:50;;;;;;;1.93;1.20;;;;;;;;;;4986867;28;57494;-75
2023/11/28 05:56:15;;;;;;;4.10;1.30;;;;;;;;;;4981794;28;58462;-75
2023/11/28 05:58:41;;;;;;;3.92;1.83;;;;;;;;;;4979279;28;57845;-73
2023/11/28 06:01:06;;;;;;;1.88;1.08;;;;;;;;;;4977796;28;58473;-73
2023/11/28 06:03:31;;;;;;;2.15;0.93;;;;;;;;;;4980336;28;59332;-73
2023/11/28 06:05:56;;;;;;;3.28;1.50;;;;;;;;;;4980650;28;57907;-74
2023/11/28 06:08:22;;;;;;;1.98;1.20;;;;;;;;;;4982062;28;58829;-74
2023/11/28 06:10:47;;;;;;;1.97;1.30;;;;;;;;;;4980375;28;58965;-74
2023/11/28 06:13:12;;;;;;;2.80;0.97;;;;;;;;;;4984435;28;58093;-74
2023/11/28 06:15:37;;;;;;;6.97;1.50;;;;;;;;;;4982028;28;58417;-74
2023/11/28 06:18:02;;;;;;;3.40;0.90;;;;;;;;;;4983871;28;57998;-74
2023/11/28 06:20:28;;;;;;;3.30;1.10;;;;;;;;;;4983187;28;57856;-74
2023/11/28 06:22:53;;;;;;;2.63;1.00;;;;;;;;;;4985437;28;58903;-74
2023/11/28 06:25:18;;;;;;;5.18;1.17;;;;;;;;;;4984031;28;57852;-74
2023/11/28 06:27:43;;;;;;;1.77;1.20;;;;;;;;;;4983415;28;58734;-74
2023/11/28 06:30:09;;;;;;;2.10;1.43;;;;;;;;;;4981646;28;59387;-72
2023/11/28 06:32:34;;;;;;;1.75;1.33;;;;;;;;;;4983441;28;57790;-74
2023/11/28 06:34:59;;;;;;;1.77;1.10;;;;;;;;;;4984994;28;57808;-74
2023/11/28 06:37:24;;;;;;;1.20;1.10;;;;;;;;;;4984100;28;58048;-74
2023/11/28 06:39:51;;;;;;;3.90;1.23;;;;;;;;;;4980651;28;58148;-74
2023/11/28 06:42:16;;;;;;;2.20;1.35;;;;;;;;;;4973162;28;57911;-73
2023/11/28 06:44:41;;;;;;;2.60;1.30;;;;;;;;;;4982955;28;58028;-72
2023/11/28 06:47:06;;;;;;;2.53;1.77;;;;;;;;;;4986099;28;57720;-73
2023/11/28 06:49:31;;;;;;;2.73;0.90;;;;;;;;;;4983593;28;58051;-73
2023/11/28 06:51:57;;;;;;;2.73;1.03;;;;;;;;;;4984459;28;58087;-74
2023/11/28 06:54:22;;;;;;;4.93;1.20;;;;;;;;;;4984763;28;59635;-73
2023/11/28 06:56:47;;;;;;;2.05;0.93;;;;;;;;;;4984424;28;58826;-73
2023/11/28 06:59:12;;;;;;;2.97;1.45;;;;;;;;;;4982848;28;57741;-73
2023/11/28 07:01:41;;;;;;;3.40;1.30;;;;;;;;;;4985968;28;57861;-74
2023/11/28 07:04:06;;;;;;;2.67;0.80;;;;;;;;;;4983940;28;57910;-69
2023/11/28 07:06:31;;;;;;;3.90;1.20;;;;;;;;;;4983464;28;57622;-70
2023/11/28 07:08:57;;;;;;;2.25;1.38;;;;;;;;;;4983150;28;58729;-69
2023/11/28 07:11:22;;;;;;;2.15;0.80;;;;;;;;;;4983948;28;57942;-70
2023/11/28 07:13:48;;;;;;;2.22;1.00;;;;;;;;;;4985233;28;58831;-70
2023/11/28 07:16:17;;;;;;;2.25;0.98;;;;;;;;;;4982510;28;58990;-69
2023/11/28 07:18:42;;;;;;;2.17;0.60;;;;;;;;;;4981071;28;58059;-70
2023/11/28 07:21:07;;;;;;;1.08;0.80;;;;;;;;;;4985162;28;58504;-70
2023/11/28 07:23:33;;;;;;;2.28;1.38;;;;;;;;;;4982350;28;58772;-69
2023/11/28 07:25:58;;;;;;;1.17;1.00;;;;;;;;;;4986568;28;57939;-69
2023/11/28 07:28:24;;;;;;;2.83;1.10;;;;;;;;;;4982828;28;58009;-69
2023/11/28 07:30:50;;;;;;;1.38;1.02;;;;;;;;;;4982808;28;58333;-69
2023/11/28 07:33:15;;;;;;;2.08;0.70;;;;;;;;;;4981837;28;58549;-69
2023/11/28 07:35:40;;;;;;;0.93;0.80;;;;;;;;;;4983684;28;58622;-69
2023/11/28 07:38:05;;;;;;;2.83;1.00;;;;;;;;;;4983934;28;58123;-69
2023/11/28 07:40:33;;;;;;;0.93;0.60;;;;;;;;;;4981842;28;59105;-71
2023/11/28 07:42:58;;;;;;;4.07;0.65;;;;;;;;;;4983659;28;59046;-70
2023/11/28 07:45:23;;;;;;;0.90;0.80;;;;;;;;;;4985122;28;57817;-69
2023/11/28 07:47:48;;;;;;;1.52;0.80;;;;;;;;;;4980253;28;57879;-70
2023/11/28 07:50:15;;;;;;;1.83;1.00;;;;;;;;;;4981916;28;57850;-69
2023/11/28 07:52:40;;;;;;;0.70;0.68;;;;;;;;;;4983062;28;58537;-69
2023/11/28 07:55:06;;;;;;;1.15;0.93;;;;;;;;;;4981167;28;58273;-69
2023/11/28 07:57:31;;;;;;;1.42;0.85;;;;;;;;;;4982547;28;58210;-70
2023/11/28 07:59:56;;;;;;;3.30;1.07;;;;;;;;;;4981218;28;59211;-70
2023/11/28 08:02:22;;;;;;;1.58;0.70;;;;;;;;;;4981561;28;58888;-69
2023/11/28 08:04:47;;;;;;;2.27;0.77;;;;;;;;;;4984799;28;58239;-70
2023/11/28 08:07:12;;;;;;;0.70;0.70;;;;;;;;;;4981548;28;58894;-69
2023/11/28 08:09:37;;;;;;;1.63;0.70;;;;;;;;;;4981551;28;58077;-69
2023/11/28 08:12:03;;;;;;;1.20;0.90;;;;;;;;;;4982536;28;58410;-69
2023/11/28 08:14:28;;;;;;;0.60;0.57;;;;;;;;;;4983813;28;58933;-69
2023/11/28 08:16:53;;;;;;;1.17;0.90;;;;;;;;;;4982611;28;57815;-70
2023/11/28 08:19:18;;;;;;;0.77;0.65;;;;;;;;;;4982560;28;58010;-69
2023/11/28 08:21:43;;;;;;;0.97;0.60;;;;;;;;;;4982095;28;57902;-69
2023/11/28 08:24:08;;;;;;;2.17;0.90;;;;;;;;;;4984049;28;58164;-69
2023/11/28 08:26:33;;;;;;;0.73;0.60;;;;;;;;;;4983016;28;57684;-68
2023/11/28 08:28:59;;;;;;;1.17;0.63;;;;;;;;;;4984265;28;58788;-69
2023/11/28 08:31:24;;;;;;;1.83;1.05;;;;;;;;;;4981846;28;57887;-69
2023/11/28 08:33:49;;;;;;;0.30;0.30;;;;;;;;;;4981252;28;58976;-69
2023/11/28 08:36:14;;;;;;;0.80;0.70;;;;;;;;;;4983049;28;57987;-69
2023/11/28 08:38:39;;;;;;;0.55;0.50;;;;;;;;;;4981814;28;58403;-69
2023/11/28 08:41:05;;;;;;;0.83;0.80;;;;;;;;;;4983357;28;59022;-69
2023/11/28 08:43:30;;;;;;;1.00;1.00;;;;;;;;;;4983577;28;57826;-69
2023/11/28 08:45:55;;;;;;;2.13;1.27;;;;;;;;;;4983005;28;58972;-68
2023/11/28 08:48:20;;;;;;;1.27;0.82;;;;;;;;;;4980132;28;57647;-69
2023/11/28 08:50:45;;;;;;;1.23;0.50;;;;;;;;;;4983972;28;58061;-70
2023/11/28 08:53:11;;;;;;;0.33;0.33;;;;;;;;;;4982061;28;59075;-71
2023/11/28 08:55:36;;;;;;;0.50;0.50;;;;;;;;;;4984957;28;57920;-69
2023/11/28 08:58:01;;;;;;;1.70;0.98;;;;;;;;;;4981731;28;57853;-69
2023/11/28 09:00:26;;;;;;;0.97;0.50;;;;;;;;;;4981534;28;58089;-69
2023/11/28 09:02:52;;;;;;;0.83;0.30;;;;;;;;;;4981201;28;57820;-70
2023/11/28 09:05:17;;;;;;;1.25;0.80;;;;;;;;;;4983423;28;58471;-69
2023/11/28 09:07:43;;;;;;;1.37;0.93;;;;;;;;;;4982388;28;58957;-69
2023/11/28 09:10:08;;;;;;;0.93;0.60;;;;;;;;;;4982101;28;58181;-71
2023/11/28 09:12:34;;;;;;;0.70;0.70;;;;;;;;;;4981489;28;58823;-69
2023/11/28 09:14:59;;;;;;;0.65;0.40;;;;;;;;;;4982399;28;58076;-69
2023/11/28 09:17:25;;;;;;;1.40;0.60;;;;;;;;;;4982024;28;57852;-69
2023/11/28 09:19:50;;;;;;;0.40;0.40;;;;;;;;;;4984214;28;57889;-69
2023/11/28 09:22:15;;;;;;;1.23;0.57;;;;;;;;;;4985305;28;57809;-69
2023/11/28 09:24:40;;;;;;;1.33;0.50;;;;;;;;;;4986648;28;57828;-73
2023/11/28 09:27:07;;;;;;;1.07;0.50;;;;;;;;;;4983734;28;59043;-73
2023/11/28 09:29:33;;;;;;;0.80;0.50;;;;;;;;;;4986211;28;57677;-73
2023/11/28 09:31:59;;;;;;;0.88;0.60;;;;;;;;;;4985100;28;57654;-73
2023/11/28 09:34:24;;;;;;;5.43;0.50;;;;;;;;;;4985981;28;58998;-69
2023/11/28 09:36:49;;;;;;;0.85;0.50;;;;;;;;;;4985869;28;57870;-68
2023/11/28 09:39:14;;;;;;;1.00;0.60;;;;;;;;;;4984074;28;58698;-68
2023/11/28 09:41:43;;;;;;;1.05;0.75;;;;;;;;;;4984789;28;58070;-69
2023/11/28 09:44:10;;;;;;;0.45;0.40;;;;;;;;;;4986051;28;58664;-69
2023/11/28 09:46:37;;;;;;;0.57;0.50;;;;;;;;;;4983621;28;57875;-69
2023/11/28 09:49:03;;;;;;;2.17;0.80;;;;;;;;;;4984147;28;57921;-69
2023/11/28 09:51:29;;;;;;;0.65;0.45;;;;;;;;;;4983721;28;58557;-68
2023/11/28 09:53:56;;;;;;;0.52;0.45;;;;;;;;;;4983959;28;58010;-70
2023/11/28 09:56:22;;;;;;;1.10;0.57;;;;;;;;;;4984548;28;57800;-68
2023/11/28 09:58:49;;;;;;;1.15;0.50;;;;;;;;;;4984627;28;59802;-69
2023/11/28 10:01:14;;;;;;;0.63;0.60;;;;;;;;;;4983108;28;57876;-68
2023/11/28 10:03:40;;;;;;;0.85;0.40;;;;;;;;;;4983998;28;57718;-68
2023/11/28 10:06:06;;;;;;;0.40;0.40;;;;;;;;;;4984680;28;57772;-67
2023/11/28 10:08:33;;;;;;;0.85;0.60;;;;;;;;;;4984932;28;57845;-68
2023/11/28 10:10:58;;;;;;;2.22;0.40;;;;;;;;;;4987044;28;58552;-67
2023/11/28 10:13:24;;;;;;;1.25;0.40;;;;;;;;;;4985356;28;59239;-68
2023/11/28 10:15:54;;;;;;;1.43;0.60;;;;;;;;;;4984773;28;58094;-69
2023/11/28 10:18:22;;;;;;;1.27;0.85;;;;;;;;;;4983183;28;59030;-69
2023/11/28 10:20:47;;;;;;;0.30;0.30;;;;;;;;;;4984297;28;57939;-71
2023/11/28 10:23:14;;;;;;;0.30;0.30;;;;;;;;;;4986444;28;58705;-71
2023/11/28 10:25:40;;;;;;;1.35;0.65;;;;;;;;;;4985743;28;59102;-71
2023/11/28 10:28:05;;;;;;;0.40;0.40;;;;;;;;;;4986564;28;58042;-71
2023/11/28 10:30:30;;;;;;;0.50;0.50;;;;;;;;;;4981911;28;60432;-71
2023/11/28 10:32:57;;;;;;;0.82;0.47;;;;;;;;;;4983641;28;57805;-71
2023/11/28 10:35:22;;;;;;;0.43;0.43;;;;;;;;;;4982949;28;58427;-75
2023/11/28 10:37:47;;;;;;;0.63;0.50;;;;;;;;;;4985068;28;57916;-75
2023/11/28 10:40:14;;;;;;;0.82;0.43;;;;;;;;;;4982941;28;58179;-74
2023/11/28 10:42:42;;;;;;;0.40;0.40;;;;;;;;;;4983753;28;58234;-73
2023/11/28 10:45:12;;;;;;;0.60;0.40;;;;;;;;;;4982197;28;59282;-71
2023/11/28 10:47:40;;;;;;;1.08;0.43;;;;;;;;;;4983016;28;57731;-73
2023/11/28 10:50:06;;;;;;;0.68;0.30;;;;;;;;;;4984867;28;59023;-73
2023/11/28 10:52:35;;;;;;;0.50;0.47;;;;;;;;;;4981696;28;58062;-73
2023/11/28 10:55:02;;;;;;;0.40;0.40;;;;;;;;;;4984701;28;58093;-73
2023/11/28 10:57:28;;;;;;;0.50;0.50;;;;;;;;;;4983727;28;58010;-73
2023/11/28 11:00:01;;;;;;;0.50;0.45;;;;;;;;;;4982270;28;58900;-73
2023/11/28 11:02:26;;;;;;;0.30;0.30;;;;;;;;;;4983020;28;58696;-73
2023/11/28 11:04:52;;;;;;;0.20;0.20;;;;;;;;;;4984426;28;59153;-74
2023/11/28 11:07:17;;;;;;;0.53;0.20;;;;;;;;;;4986619;28;57804;-74
2023/11/28 11:09:44;;;;;;;0.65;0.57;;;;;;;;;;4986170;28;58931;-73
2023/11/28 11:12:10;;;;;;;0.50;0.50;;;;;;;;;;4983994;28;59096;-73
2023/11/28 11:14:53;;;;;;;0.47;0.32;;;;;;;;;;4986057;28;57899;-73
2023/11/28 11:17:28;;;;;;;0.25;0.25;;;;;;;;;;4980213;28;58665;-74
2023/11/28 11:19:55;;;;;;;0.38;0.30;;;;;;;;;;4982119;28;58790;-72
2023/11/28 11:22:21;;;;;;;0.50;0.50;;;;;;;;;;4982162;28;58273;-74
2023/11/28 11:24:46;;;;;;;0.63;0.63;;;;;;;;;;4983777;28;57808;-73
2023/11/28 11:27:12;;;;;;;0.63;0.50;;;;;;;;;;4982551;28;57973;-73
2023/11/28 11:29:41;;;;;;;0.30;0.30;;;;;;;;;;4984502;28;58363;-73
2023/11/28 11:32:15;;;;;;;0.43;0.43;;;;;;;;;;4982092;28;58044;-74
2023/11/28 11:34:41;;;;;;;0.20;0.20;;;;;;;;;;4984865;28;57557;-73
2023/11/28 11:37:13;;;;;;;0.20;0.20;;;;;;;;;;4982862;28;58510;-73
2023/11/28 11:39:43;;;;;;;0.28;0.28;;;;;;;;;;4982556;28;58899;-74
2023/11/28 11:42:11;;;;;;;0.50;0.30;;;;;;;;;;4982520;28;57930;-72
2023/11/28 11:44:39;;;;;;;0.30;0.30;;;;;;;;;;4983305;28;59441;-69
2023/11/28 11:47:17;;;;;;;0.50;0.30;;;;;;;;;;4984053;28;58137;-69
2023/11/28 11:49:43;;;;;;;0.43;0.32;;;;;;;;;;4981957;28;61771;-70
2023/11/28 11:52:08;;;;;;;1.08;0.35;;;;;;;;;;4982986;28;57609;-69
2023/11/28 11:54:33;;;;;;;0.30;0.30;;;;;;;;;;4984237;28;58401;-74
2023/11/28 11:56:59;;;;;;;0.50;0.32;;;;;;;;;;4983248;28;57570;-74
2023/11/28 11:59:26;;;;;;;0.55;0.50;;;;;;;;;;4982065;28;57827;-74
2023/11/28 12:01:52;;;;;;;0.30;0.30;;;;;;;;;;4983705;28;57842;-74
2023/11/28 12:04:18;;;;;;;0.43;0.22;;;;;;;;;;4983548;28;59024;-74
2023/11/28 12:06:43;;;;;;;0.40;0.40;;;;;;;;;;4984841;28;57868;-74
2023/11/28 12:09:08;;;;;;;0.50;0.50;;;;;;;;;;4982654;28;57797;-74
2023/11/28 12:11:34;;;;;;;0.43;0.43;;;;;;;;;;4982096;28;58772;-74
2023/11/28 12:14:00;;;;;;;0.50;0.30;;;;;;;;;;4984954;28;57904;-74
2023/11/28 12:16:25;;;;;;;0.32;0.30;;;;;;;;;;4982922;28;60335;-73
2023/11/28 12:18:50;;;;;;;0.30;0.30;;;;;;;;;;4981801;28;57919;-74
2023/11/28 12:21:17;;;;;;;0.40;0.40;;;;;;;;;;4984886;28;57798;-74
2023/11/28 12:23:42;;;;;;;0.30;0.30;;;;;;;;;;4981853;28;59555;-74
2023/11/28 12:26:07;;;;;;;0.20;0.20;;;;;;;;;;4984984;28;58303;-74
2023/11/28 12:28:33;;;;;;;1.23;0.87;;;;;;;;;;4982707;28;59427;-73
2023/11/28 12:30:58;;;;;;;0.30;0.30;;;;;;;;;;4983402;28;57864;-74
2023/11/28 12:33:23;;;;;;;0.53;0.40;;;;;;;;;;4982104;28;57861;-74
2023/11/28 12:35:49;;;;;;;0.32;0.32;;;;;;;;;;4984300;28;58460;-74
2023/11/28 12:38:14;;;;;;;0.37;0.37;;;;;;;;;;4980450;28;58866;-74
2023/11/28 12:40:39;;;;;;;0.23;0.23;;;;;;;;;;4982941;28;58193;-73
2023/11/28 12:43:04;;;;;;;0.60;0.23;;;;;;;;;;4983132;28;58703;-73
2023/11/28 12:45:32;;;;;;;0.45;0.45;;;;;;;;;;4981125;28;58737;-74
2023/11/28 12:47:57;;;;;;;0.50;0.50;;;;;;;;;;4982885;28;59259;-74
2023/11/28 12:50:26;;;;;;;0.30;0.30;;;;;;;;;;4981386;28;58789;-74
2023/11/28 12:52:51;;;;;;;0.47;0.47;;;;;;;;;;4984125;28;57887;-73
2023/11/28 12:55:16;;;;;;;0.20;0.20;;;;;;;;;;4986581;28;60356;-73
2023/11/28 12:57:42;;;;;;;0.30;0.20;;;;;;;;;;4983870;28;58829;-73
2023/11/28 13:00:07;;;;;;;0.30;0.30;;;;;;;;;;4985472;28;58449;-74
2023/11/28 13:02:32;;;;;;;0.38;0.30;;;;;;;;;;4984823;28;59452;-74
2023/11/28 13:04:57;;;;;;;0.25;0.25;;;;;;;;;;4987135;28;60748;-72
2023/11/28 13:07:22;;;;;;;0.20;0.20;;;;;;;;;;4984410;28;58355;-73
2023/11/28 13:09:48;;;;;;;0.40;0.40;;;;;;;;;;4985883;28;58565;-73
2023/11/28 13:12:13;;;;;;;1.23;0.77;;;;;;;;;;4985455;28;58310;-72
2023/11/28 13:14:40;;;;;;;0.63;0.50;;;;;;;;;;4986075;28;59422;-73
2023/11/28 13:17:05;;;;;;;0.63;0.55;;;;;;;;;;4978484;28;58873;-73
2023/11/28 13:19:31;;;;;;;0.43;0.43;;;;;;;;;;4978971;28;58552;-72
2023/11/28 13:21:56;;;;;;;1.45;0.40;;;;;;;;;;4981991;28;59243;-73
2023/11/28 13:24:22;;;;;;;0.40;0.40;;;;;;;;;;4983244;28;60177;-73
2023/11/28 13:26:47;;;;;;;2.17;0.32;;;;;;;;;;4984575;28;58347;-72
2023/11/28 13:29:12;;;;;;;0.50;0.50;;;;;;;;;;4985266;28;58230;-73
2023/11/28 13:31:38;;;;;;;0.40;0.40;;;;;;;;;;4983726;28;58970;-73
2023/11/28 13:34:04;;;;;;;1.80;0.22;;;;;;;;;;4983624;28;60284;-72
2023/11/28 13:36:29;;;;;;;0.32;0.32;;;;;;;;;;4979339;28;60718;-71
2023/11/28 13:38:55;;;;;;;0.50;0.50;;;;;;;;;;4983473;28;58284;-73
2023/11/28 13:41:20;;;;;;;0.30;0.30;;;;;;;;;;4980926;28;58647;-75
2023/11/28 13:43:45;;;;;;;1.73;0.33;;;;;;;;;;4983491;28;59247;-73
2023/11/28 13:46:10;;;;;;;2.65;0.40;;;;;;;;;;4983840;28;58410;-74
2023/11/28 13:48:36;;;;;;;2.03;0.40;;;;;;;;;;4981910;28;59144;-72
2023/11/28 13:51:01;;;;;;;1.75;0.30;;;;;;;;;;4979974;28;58850;-71
2023/11/28 13:53:27;;;;;;;3.00;0.40;;;;;;;;;;4983491;28;58428;-73
2023/11/28 13:55:56;;;;;;;0.20;0.20;;;;;;;;;;4984900;28;58749;-75
2023/11/28 13:58:22;;;;;;;0.32;0.32;;;;;;;;;;4982980;28;58403;-74
2023/11/28 14:00:47;;;;;;;1.03;0.30;;;;;;;;;;4983568;28;59310;-71
2023/11/28 14:03:12;;;;;;;0.43;0.40;;;;;;;;;;4980988;28;58693;-68
2023/11/28 14:05:37;;;;;;;2.10;0.50;;;;;;;;;;4979617;28;58316;-68
2023/11/28 14:08:02;;;;;;;0.63;0.32;;;;;;;;;;4983210;28;59152;-69
2023/11/28 14:10:27;;;;;;;2.60;0.40;;;;;;;;;;4981742;28;58555;-72
2023/11/28 14:12:53;;;;;;;0.37;0.30;;;;;;;;;;4984413;28;58382;-68
2023/11/28 14:15:18;;;;;;;0.68;0.30;;;;;;;;;;4979985;28;58824;-73
2023/11/28 14:17:43;;;;;;;1.10;0.40;;;;;;;;;;4982398;28;58871;-69
2023/11/28 14:20:11;;;;;;;0.22;0.22;;;;;;;;;;4983249;28;58465;-72
2023/11/28 14:22:36;;;;;;;2.38;0.50;;;;;;;;;;4983030;28;58989;-76
2023/11/28 14:25:02;;;;;;;2.33;0.43;;;;;;;;;;4983382;28;58396;-71
2023/11/28 14:27:28;;;;;;;2.55;0.47;;;;;;;;;;4983587;28;59453;-76
2023/11/28 14:29:53;;;;;;;2.83;0.80;;;;;;;;;;4981704;28;58740;-71
2023/11/28 14:32:18;;;;;;;0.47;0.47;;;;;;;;;;4981391;28;58389;-72
2023/11/28 14:34:43;;;;;;;0.30;0.30;;;;;;;;;;4981047;28;60325;-71